sensor_id;sensor_type;location;lat;lon;timestamp;P1;durP1;ratioP1;P2;durP2;ratioP2
24713;SDS011;12820;51.580;5.010;2022-07-29T00:00:29;3.22;;;0.90;;
24713;SDS011;12820;51.580;5.010;2022-07-29T00:05:32;3.17;;;0.93;;
24713;SDS011;12820;51.580;5.010;2022-07-29T00:10:34;2.38;;;0.88;;
24713;SDS011;12820;51.580;5.010;2022-07-29T00:15:37;5.25;;;0.90;;
24713;SDS011;12820;51.580;5.010;2022-07-29T00:20:39;2.45;;;0.90;;
24713;SDS011;12820;51.580;5.010;2022-07-29T00:25:41;2.38;;;0.90;;
24713;SDS011;12820;51.580;5.010;2022-07-29T00:30:43;1.90;;;0.73;;
24713;SDS011;12820;51.580;5.010;2022-07-29T00:35:46;2.80;;;1.20;;
24713;SDS011;12820;51.580;5.010;2022-07-29T00:40:49;2.38;;;0.70;;
24713;SDS011;12820;51.580;5.010;2022-07-29T00:45:51;4.32;;;1.20;;
24713;SDS011;12820;51.580;5.010;2022-07-29T00:50:53;4.63;;;1.13;;
24713;SDS011;12820;51.580;5.010;2022-07-29T00:55:57;2.80;;;1.15;;
24713;SDS011;12820;51.580;5.010;2022-07-29T01:01:00;3.38;;;1.00;;
24713;SDS011;12820;51.580;5.010;2022-07-29T01:06:02;4.72;;;1.02;;
24713;SDS011;12820;51.580;5.010;2022-07-29T01:11:04;2.50;;;0.80;;
24713;SDS011;12820;51.580;5.010;2022-07-29T01:16:16;2.97;;;1.00;;
24713;SDS011;12820;51.580;5.010;2022-07-29T01:21:33;5.47;;;1.30;;
24713;SDS011;12820;51.580;5.010;2022-07-29T01:32:26;4.05;;;1.40;;
24713;SDS011;12820;51.580;5.010;2022-07-29T01:42:48;2.33;;;1.02;;
24713;SDS011;12820;51.580;5.010;2022-07-29T01:48:03;4.20;;;1.10;;
24713;SDS011;12820;51.580;5.010;2022-07-29T01:53:09;3.00;;;0.88;;
24713;SDS011;12820;51.580;5.010;2022-07-29T01:58:12;3.72;;;1.17;;
24713;SDS011;12820;51.580;5.010;2022-07-29T02:03:16;3.22;;;1.20;;
24713;SDS011;12820;51.580;5.010;2022-07-29T02:08:20;3.40;;;1.10;;
24713;SDS011;12820;51.580;5.010;2022-07-29T02:13:23;2.50;;;1.05;;
24713;SDS011;12820;51.580;5.010;2022-07-29T02:18:29;2.15;;;1.00;;
24713;SDS011;12820;51.580;5.010;2022-07-29T02:23:32;2.40;;;1.00;;
24713;SDS011;12820;51.580;5.010;2022-07-29T02:28:54;3.78;;;1.40;;
24713;SDS011;12820;51.580;5.010;2022-07-29T02:33:57;4.10;;;1.10;;
24713;SDS011;12820;51.580;5.010;2022-07-29T02:39:01;4.38;;;1.42;;
24713;SDS011;12820;51.580;5.010;2022-07-29T02:44:06;4.53;;;1.50;;
24713;SDS011;12820;51.580;5.010;2022-07-29T02:59:38;5.65;;;1.25;;
24713;SDS011;12820;51.580;5.010;2022-07-29T03:04:45;3.22;;;1.08;;
24713;SDS011;12820;51.580;5.010;2022-07-29T03:09:48;3.55;;;1.33;;
24713;SDS011;12820;51.580;5.010;2022-07-29T03:14:52;2.78;;;1.00;;
24713;SDS011;12820;51.580;5.010;2022-07-29T03:19:55;4.53;;;1.40;;
24713;SDS011;12820;51.580;5.010;2022-07-29T03:24:57;3.15;;;1.38;;
24713;SDS011;12820;51.580;5.010;2022-07-29T03:29:59;4.75;;;1.73;;
24713;SDS011;12820;51.580;5.010;2022-07-29T03:35:01;4.93;;;1.30;;
24713;SDS011;12820;51.580;5.010;2022-07-29T03:40:05;4.10;;;1.50;;
24713;SDS011;12820;51.580;5.010;2022-07-29T03:45:10;3.55;;;1.50;;
24713;SDS011;12820;51.580;5.010;2022-07-29T03:50:17;3.45;;;1.48;;
24713;SDS011;12820;51.580;5.010;2022-07-29T03:55:21;6.53;;;1.33;;
24713;SDS011;12820;51.580;5.010;2022-07-29T04:00:24;3.83;;;1.50;;
24713;SDS011;12820;51.580;5.010;2022-07-29T04:05:28;3.08;;;1.40;;
24713;SDS011;12820;51.580;5.010;2022-07-29T04:10:30;3.63;;;1.52;;
24713;SDS011;12820;51.580;5.010;2022-07-29T04:15:36;3.92;;;1.42;;
24713;SDS011;12820;51.580;5.010;2022-07-29T04:20:38;4.45;;;1.98;;
24713;SDS011;12820;51.580;5.010;2022-07-29T04:25:40;4.10;;;1.70;;
24713;SDS011;12820;51.580;5.010;2022-07-29T04:30:43;8.82;;;2.67;;
24713;SDS011;12820;51.580;5.010;2022-07-29T04:35:45;4.57;;;1.85;;
24713;SDS011;12820;51.580;5.010;2022-07-29T04:40:55;3.80;;;1.83;;
24713;SDS011;12820;51.580;5.010;2022-07-29T04:45:57;4.95;;;2.25;;
24713;SDS011;12820;51.580;5.010;2022-07-29T04:51:00;4.80;;;1.80;;
24713;SDS011;12820;51.580;5.010;2022-07-29T04:56:02;5.18;;;2.53;;
24713;SDS011;12820;51.580;5.010;2022-07-29T05:01:04;4.75;;;2.40;;
24713;SDS011;12820;51.580;5.010;2022-07-29T05:06:06;4.82;;;2.38;;
24713;SDS011;12820;51.580;5.010;2022-07-29T05:11:08;6.80;;;2.15;;
24713;SDS011;12820;51.580;5.010;2022-07-29T05:16:14;4.85;;;2.03;;
24713;SDS011;12820;51.580;5.010;2022-07-29T05:21:16;3.75;;;1.85;;
24713;SDS011;12820;51.580;5.010;2022-07-29T05:26:18;7.05;;;2.40;;
24713;SDS011;12820;51.580;5.010;2022-07-29T05:31:20;5.68;;;2.20;;
24713;SDS011;12820;51.580;5.010;2022-07-29T05:36:22;6.40;;;2.08;;
24713;SDS011;12820;51.580;5.010;2022-07-29T05:41:24;6.57;;;2.33;;
24713;SDS011;12820;51.580;5.010;2022-07-29T05:46:27;5.93;;;2.25;;
24713;SDS011;12820;51.580;5.010;2022-07-29T05:51:30;4.63;;;2.08;;
24713;SDS011;12820;51.580;5.010;2022-07-29T05:56:32;4.97;;;2.38;;
24713;SDS011;12820;51.580;5.010;2022-07-29T06:01:34;4.53;;;2.13;;
24713;SDS011;12820;51.580;5.010;2022-07-29T06:06:47;9.52;;;2.20;;
24713;SDS011;12820;51.580;5.010;2022-07-29T06:11:57;8.77;;;2.17;;
24713;SDS011;12820;51.580;5.010;2022-07-29T06:17:15;5.95;;;1.90;;
24713;SDS011;12820;51.580;5.010;2022-07-29T06:22:18;5.63;;;2.15;;
24713;SDS011;12820;51.580;5.010;2022-07-29T06:27:20;5.35;;;1.88;;
24713;SDS011;12820;51.580;5.010;2022-07-29T06:32:22;6.07;;;2.20;;
24713;SDS011;12820;51.580;5.010;2022-07-29T06:37:28;3.75;;;2.05;;
24713;SDS011;12820;51.580;5.010;2022-07-29T06:42:33;4.00;;;1.88;;
24713;SDS011;12820;51.580;5.010;2022-07-29T06:47:35;5.90;;;2.72;;
24713;SDS011;12820;51.580;5.010;2022-07-29T06:52:38;5.13;;;2.55;;
24713;SDS011;12820;51.580;5.010;2022-07-29T06:57:40;7.13;;;2.42;;
24713;SDS011;12820;51.580;5.010;2022-07-29T07:02:42;5.55;;;2.28;;
24713;SDS011;12820;51.580;5.010;2022-07-29T07:07:45;6.22;;;2.50;;
24713;SDS011;12820;51.580;5.010;2022-07-29T07:12:47;5.20;;;2.28;;
24713;SDS011;12820;51.580;5.010;2022-07-29T07:17:49;4.53;;;2.40;;
24713;SDS011;12820;51.580;5.010;2022-07-29T07:22:51;5.22;;;2.55;;
24713;SDS011;12820;51.580;5.010;2022-07-29T07:27:53;7.22;;;2.80;;
24713;SDS011;12820;51.580;5.010;2022-07-29T07:32:55;7.70;;;2.53;;
24713;SDS011;12820;51.580;5.010;2022-07-29T07:37:57;4.03;;;2.10;;
24713;SDS011;12820;51.580;5.010;2022-07-29T07:42:59;4.47;;;2.13;;
24713;SDS011;12820;51.580;5.010;2022-07-29T07:48:01;4.15;;;2.22;;
24713;SDS011;12820;51.580;5.010;2022-07-29T07:53:03;5.80;;;2.45;;
24713;SDS011;12820;51.580;5.010;2022-07-29T07:58:06;6.55;;;3.15;;
24713;SDS011;12820;51.580;5.010;2022-07-29T08:03:08;6.38;;;2.78;;
24713;SDS011;12820;51.580;5.010;2022-07-29T08:08:18;4.38;;;2.30;;
24713;SDS011;12820;51.580;5.010;2022-07-29T08:13:20;6.38;;;3.05;;
24713;SDS011;12820;51.580;5.010;2022-07-29T08:18:24;4.63;;;2.38;;
24713;SDS011;12820;51.580;5.010;2022-07-29T08:23:26;6.13;;;2.60;;
24713;SDS011;12820;51.580;5.010;2022-07-29T08:28:49;5.13;;;2.47;;
24713;SDS011;12820;51.580;5.010;2022-07-29T08:33:52;16.20;;;4.13;;
24713;SDS011;12820;51.580;5.010;2022-07-29T08:38:54;5.60;;;2.63;;
24713;SDS011;12820;51.580;5.010;2022-07-29T08:43:57;7.20;;;2.70;;
24713;SDS011;12820;51.580;5.010;2022-07-29T08:48:59;9.07;;;2.80;;
24713;SDS011;12820;51.580;5.010;2022-07-29T08:54:01;9.15;;;2.80;;
24713;SDS011;12820;51.580;5.010;2022-07-29T08:59:04;6.30;;;2.70;;
24713;SDS011;12820;51.580;5.010;2022-07-29T09:04:09;7.13;;;2.80;;
24713;SDS011;12820;51.580;5.010;2022-07-29T09:09:13;5.45;;;2.50;;
24713;SDS011;12820;51.580;5.010;2022-07-29T09:14:15;5.70;;;2.90;;
24713;SDS011;12820;51.580;5.010;2022-07-29T09:19:21;7.15;;;2.58;;
24713;SDS011;12820;51.580;5.010;2022-07-29T09:24:40;7.72;;;2.20;;
24713;SDS011;12820;51.580;5.010;2022-07-29T09:29:43;4.85;;;2.00;;
24713;SDS011;12820;51.580;5.010;2022-07-29T09:34:45;6.68;;;2.28;;
24713;SDS011;12820;51.580;5.010;2022-07-29T09:39:48;5.32;;;1.73;;
24713;SDS011;12820;51.580;5.010;2022-07-29T09:44:50;5.70;;;2.03;;
24713;SDS011;12820;51.580;5.010;2022-07-29T09:49:56;3.65;;;1.63;;
24713;SDS011;12820;51.580;5.010;2022-07-29T09:55:07;3.95;;;1.70;;
24713;SDS011;12820;51.580;5.010;2022-07-29T10:00:17;12.32;;;2.63;;
24713;SDS011;12820;51.580;5.010;2022-07-29T10:05:24;3.60;;;1.58;;
24713;SDS011;12820;51.580;5.010;2022-07-29T10:10:39;8.43;;;1.85;;
24713;SDS011;12820;51.580;5.010;2022-07-29T10:15:44;3.67;;;1.60;;
24713;SDS011;12820;51.580;5.010;2022-07-29T10:20:47;7.32;;;1.70;;
24713;SDS011;12820;51.580;5.010;2022-07-29T10:25:50;4.05;;;1.65;;
24713;SDS011;12820;51.580;5.010;2022-07-29T10:30:52;3.88;;;1.42;;
24713;SDS011;12820;51.580;5.010;2022-07-29T10:41:55;4.32;;;1.52;;
24713;SDS011;12820;51.580;5.010;2022-07-29T10:47:04;3.55;;;1.38;;
24713;SDS011;12820;51.580;5.010;2022-07-29T10:52:07;4.93;;;1.52;;
24713;SDS011;12820;51.580;5.010;2022-07-29T10:57:27;6.53;;;1.60;;
24713;SDS011;12820;51.580;5.010;2022-07-29T11:02:51;3.47;;;1.48;;
24713;SDS011;12820;51.580;5.010;2022-07-29T11:24:15;2.47;;;0.85;;
24713;SDS011;12820;51.580;5.010;2022-07-29T11:29:31;3.85;;;1.10;;
24713;SDS011;12820;51.580;5.010;2022-07-29T11:34:41;4.38;;;1.10;;
24713;SDS011;12820;51.580;5.010;2022-07-29T11:45:11;2.75;;;0.95;;
24713;SDS011;12820;51.580;5.010;2022-07-29T11:50:44;3.00;;;0.90;;
24713;SDS011;12820;51.580;5.010;2022-07-29T11:55:49;5.07;;;0.98;;
24713;SDS011;12820;51.580;5.010;2022-07-29T12:00:59;4.73;;;1.00;;
24713;SDS011;12820;51.580;5.010;2022-07-29T12:06:12;2.83;;;0.98;;
24713;SDS011;12820;51.580;5.010;2022-07-29T12:11:17;3.20;;;1.00;;
24713;SDS011;12820;51.580;5.010;2022-07-29T12:16:22;3.35;;;1.10;;
24713;SDS011;12820;51.580;5.010;2022-07-29T12:21:43;3.78;;;1.10;;
24713;SDS011;12820;51.580;5.010;2022-07-29T12:27:00;4.30;;;1.25;;
24713;SDS011;12820;51.580;5.010;2022-07-29T12:32:03;3.53;;;1.23;;
24713;SDS011;12820;51.580;5.010;2022-07-29T12:37:15;2.67;;;0.90;;
24713;SDS011;12820;51.580;5.010;2022-07-29T12:42:18;4.35;;;1.17;;
24713;SDS011;12820;51.580;5.010;2022-07-29T12:47:20;4.63;;;1.27;;
24713;SDS011;12820;51.580;5.010;2022-07-29T12:52:31;4.75;;;1.45;;
24713;SDS011;12820;51.580;5.010;2022-07-29T12:57:48;3.95;;;1.23;;
24713;SDS011;12820;51.580;5.010;2022-07-29T13:02:54;4.35;;;1.55;;
24713;SDS011;12820;51.580;5.010;2022-07-29T13:08:09;8.32;;;1.50;;
24713;SDS011;12820;51.580;5.010;2022-07-29T13:13:23;3.92;;;1.20;;
24713;SDS011;12820;51.580;5.010;2022-07-29T13:18:31;6.90;;;1.40;;
24713;SDS011;12820;51.580;5.010;2022-07-29T13:23:37;4.78;;;1.30;;
24713;SDS011;12820;51.580;5.010;2022-07-29T13:29:04;2.50;;;0.82;;
24713;SDS011;12820;51.580;5.010;2022-07-29T13:34:06;5.15;;;1.10;;
24713;SDS011;12820;51.580;5.010;2022-07-29T13:39:08;5.30;;;1.08;;
24713;SDS011;12820;51.580;5.010;2022-07-29T13:44:15;3.25;;;0.90;;
24713;SDS011;12820;51.580;5.010;2022-07-29T13:49:17;3.00;;;1.02;;
24713;SDS011;12820;51.580;5.010;2022-07-29T13:54:19;6.63;;;1.27;;
24713;SDS011;12820;51.580;5.010;2022-07-29T13:59:21;3.38;;;1.00;;
24713;SDS011;12820;51.580;5.010;2022-07-29T14:04:23;3.97;;;1.13;;
24713;SDS011;12820;51.580;5.010;2022-07-29T14:09:26;3.58;;;1.10;;
24713;SDS011;12820;51.580;5.010;2022-07-29T14:14:28;2.67;;;0.80;;
24713;SDS011;12820;51.580;5.010;2022-07-29T14:19:31;3.47;;;1.10;;
24713;SDS011;12820;51.580;5.010;2022-07-29T14:24:37;5.22;;;1.13;;
24713;SDS011;12820;51.580;5.010;2022-07-29T14:29:39;4.10;;;1.23;;
24713;SDS011;12820;51.580;5.010;2022-07-29T14:34:41;3.88;;;1.40;;
24713;SDS011;12820;51.580;5.010;2022-07-29T14:39:44;3.20;;;1.00;;
24713;SDS011;12820;51.580;5.010;2022-07-29T14:44:46;2.95;;;1.10;;
24713;SDS011;12820;51.580;5.010;2022-07-29T14:49:50;5.60;;;1.40;;
24713;SDS011;12820;51.580;5.010;2022-07-29T14:54:52;4.18;;;1.30;;
24713;SDS011;12820;51.580;5.010;2022-07-29T14:59:54;3.53;;;1.23;;
24713;SDS011;12820;51.580;5.010;2022-07-29T15:04:56;4.10;;;1.55;;
24713;SDS011;12820;51.580;5.010;2022-07-29T15:09:58;3.92;;;1.30;;
24713;SDS011;12820;51.580;5.010;2022-07-29T15:15:00;4.45;;;1.45;;
24713;SDS011;12820;51.580;5.010;2022-07-29T15:20:04;5.28;;;1.65;;
24713;SDS011;12820;51.580;5.010;2022-07-29T15:25:07;4.60;;;1.40;;
24713;SDS011;12820;51.580;5.010;2022-07-29T15:30:09;3.60;;;1.58;;
24713;SDS011;12820;51.580;5.010;2022-07-29T15:35:34;4.63;;;1.70;;
24713;SDS011;12820;51.580;5.010;2022-07-29T15:40:41;4.82;;;1.70;;
24713;SDS011;12820;51.580;5.010;2022-07-29T15:45:44;4.47;;;1.70;;
24713;SDS011;12820;51.580;5.010;2022-07-29T15:51:07;4.00;;;1.70;;
24713;SDS011;12820;51.580;5.010;2022-07-29T15:56:09;3.65;;;1.50;;
24713;SDS011;12820;51.580;5.010;2022-07-29T16:01:11;3.67;;;1.50;;
24713;SDS011;12820;51.580;5.010;2022-07-29T16:06:13;4.35;;;1.75;;
24713;SDS011;12820;51.580;5.010;2022-07-29T16:11:16;4.68;;;1.95;;
24713;SDS011;12820;51.580;5.010;2022-07-29T16:16:18;4.43;;;1.77;;
24713;SDS011;12820;51.580;5.010;2022-07-29T16:21:20;4.85;;;1.98;;
24713;SDS011;12820;51.580;5.010;2022-07-29T16:26:24;5.85;;;1.73;;
24713;SDS011;12820;51.580;5.010;2022-07-29T16:31:26;5.15;;;1.88;;
24713;SDS011;12820;51.580;5.010;2022-07-29T16:36:28;4.47;;;1.52;;
24713;SDS011;12820;51.580;5.010;2022-07-29T16:41:31;4.38;;;1.83;;
24713;SDS011;12820;51.580;5.010;2022-07-29T16:46:33;7.03;;;2.13;;
24713;SDS011;12820;51.580;5.010;2022-07-29T16:51:39;4.70;;;2.05;;
24713;SDS011;12820;51.580;5.010;2022-07-29T16:56:43;5.10;;;1.90;;
24713;SDS011;12820;51.580;5.010;2022-07-29T17:01:45;5.32;;;1.77;;
24713;SDS011;12820;51.580;5.010;2022-07-29T17:06:47;3.58;;;1.52;;
24713;SDS011;12820;51.580;5.010;2022-07-29T17:11:51;3.35;;;1.52;;
24713;SDS011;12820;51.580;5.010;2022-07-29T17:16:57;5.57;;;1.88;;
24713;SDS011;12820;51.580;5.010;2022-07-29T17:22:03;4.97;;;1.60;;
24713;SDS011;12820;51.580;5.010;2022-07-29T17:27:19;3.47;;;1.40;;
24713;SDS011;12820;51.580;5.010;2022-07-29T17:32:21;5.65;;;1.40;;
24713;SDS011;12820;51.580;5.010;2022-07-29T17:37:23;3.60;;;1.42;;
24713;SDS011;12820;51.580;5.010;2022-07-29T17:42:25;3.38;;;1.30;;
24713;SDS011;12820;51.580;5.010;2022-07-29T17:47:27;4.68;;;1.63;;
24713;SDS011;12820;51.580;5.010;2022-07-29T17:52:29;3.58;;;1.40;;
24713;SDS011;12820;51.580;5.010;2022-07-29T17:57:31;4.78;;;1.50;;
24713;SDS011;12820;51.580;5.010;2022-07-29T18:02:37;4.20;;;1.60;;
24713;SDS011;12820;51.580;5.010;2022-07-29T18:07:39;3.33;;;1.23;;
24713;SDS011;12820;51.580;5.010;2022-07-29T18:12:41;4.13;;;1.70;;
24713;SDS011;12820;51.580;5.010;2022-07-29T18:17:43;3.33;;;1.42;;
24713;SDS011;12820;51.580;5.010;2022-07-29T18:22:59;6.00;;;1.55;;
24713;SDS011;12820;51.580;5.010;2022-07-29T18:28:02;3.92;;;1.70;;
24713;SDS011;12820;51.580;5.010;2022-07-29T18:33:05;3.30;;;1.50;;
24713;SDS011;12820;51.580;5.010;2022-07-29T18:38:23;4.30;;;1.27;;
24713;SDS011;12820;51.580;5.010;2022-07-29T18:43:25;6.10;;;1.45;;
24713;SDS011;12820;51.580;5.010;2022-07-29T18:48:31;5.13;;;1.50;;
24713;SDS011;12820;51.580;5.010;2022-07-29T18:53:34;3.42;;;1.33;;
24713;SDS011;12820;51.580;5.010;2022-07-29T18:58:40;4.88;;;1.35;;
24713;SDS011;12820;51.580;5.010;2022-07-29T19:03:42;4.82;;;1.20;;
24713;SDS011;12820;51.580;5.010;2022-07-29T19:08:44;4.82;;;1.20;;
24713;SDS011;12820;51.580;5.010;2022-07-29T19:13:46;6.47;;;2.03;;
24713;SDS011;12820;51.580;5.010;2022-07-29T19:18:48;3.05;;;1.00;;
24713;SDS011;12820;51.580;5.010;2022-07-29T19:23:50;5.68;;;1.33;;
24713;SDS011;12820;51.580;5.010;2022-07-29T19:29:10;6.47;;;1.50;;
24713;SDS011;12820;51.580;5.010;2022-07-29T19:34:15;3.20;;;1.27;;
24713;SDS011;12820;51.580;5.010;2022-07-29T19:39:18;4.35;;;1.20;;
24713;SDS011;12820;51.580;5.010;2022-07-29T19:44:36;3.20;;;1.20;;
24713;SDS011;12820;51.580;5.010;2022-07-29T19:49:38;4.22;;;1.75;;
24713;SDS011;12820;51.580;5.010;2022-07-29T19:54:41;7.20;;;1.65;;
24713;SDS011;12820;51.580;5.010;2022-07-29T19:59:43;4.05;;;1.40;;
24713;SDS011;12820;51.580;5.010;2022-07-29T20:04:45;5.18;;;1.35;;
24713;SDS011;12820;51.580;5.010;2022-07-29T20:09:47;3.72;;;1.20;;
24713;SDS011;12820;51.580;5.010;2022-07-29T20:14:50;3.40;;;1.10;;
24713;SDS011;12820;51.580;5.010;2022-07-29T20:19:52;3.42;;;1.40;;
24713;SDS011;12820;51.580;5.010;2022-07-29T20:24:56;4.35;;;1.50;;
24713;SDS011;12820;51.580;5.010;2022-07-29T20:29:58;3.88;;;1.40;;
24713;SDS011;12820;51.580;5.010;2022-07-29T20:35:00;3.08;;;0.90;;
24713;SDS011;12820;51.580;5.010;2022-07-29T20:40:04;4.57;;;1.40;;
24713;SDS011;12820;51.580;5.010;2022-07-29T20:45:13;8.20;;;2.05;;
24713;SDS011;12820;51.580;5.010;2022-07-29T20:50:20;5.05;;;1.63;;
24713;SDS011;12820;51.580;5.010;2022-07-29T20:55:25;5.40;;;1.50;;
24713;SDS011;12820;51.580;5.010;2022-07-29T21:00:27;5.72;;;1.95;;
24713;SDS011;12820;51.580;5.010;2022-07-29T21:05:29;6.43;;;1.75;;
24713;SDS011;12820;51.580;5.010;2022-07-29T21:10:31;9.40;;;1.67;;
24713;SDS011;12820;51.580;5.010;2022-07-29T21:15:33;5.07;;;1.50;;
24713;SDS011;12820;51.580;5.010;2022-07-29T21:20:36;7.07;;;1.65;;
24713;SDS011;12820;51.580;5.010;2022-07-29T21:25:38;5.03;;;1.55;;
24713;SDS011;12820;51.580;5.010;2022-07-29T21:30:40;4.90;;;1.58;;
24713;SDS011;12820;51.580;5.010;2022-07-29T21:35:42;4.90;;;1.48;;
24713;SDS011;12820;51.580;5.010;2022-07-29T21:41:04;8.10;;;1.92;;
24713;SDS011;12820;51.580;5.010;2022-07-29T21:46:06;5.88;;;1.80;;
24713;SDS011;12820;51.580;5.010;2022-07-29T21:51:11;6.15;;;1.85;;
24713;SDS011;12820;51.580;5.010;2022-07-29T21:56:13;7.47;;;2.00;;
24713;SDS011;12820;51.580;5.010;2022-07-29T22:01:18;5.35;;;2.15;;
24713;SDS011;12820;51.580;5.010;2022-07-29T22:06:20;5.00;;;2.35;;
24713;SDS011;12820;51.580;5.010;2022-07-29T22:11:22;9.40;;;2.50;;
24713;SDS011;12820;51.580;5.010;2022-07-29T22:16:25;8.43;;;2.33;;
24713;SDS011;12820;51.580;5.010;2022-07-29T22:21:27;6.90;;;2.38;;
24713;SDS011;12820;51.580;5.010;2022-07-29T22:26:29;4.72;;;2.38;;
24713;SDS011;12820;51.580;5.010;2022-07-29T22:31:31;8.07;;;2.40;;
24713;SDS011;12820;51.580;5.010;2022-07-29T22:36:33;5.57;;;2.38;;
24713;SDS011;12820;51.580;5.010;2022-07-29T22:41:35;10.48;;;2.60;;
24713;SDS011;12820;51.580;5.010;2022-07-29T22:46:37;10.18;;;2.88;;
24713;SDS011;12820;51.580;5.010;2022-07-29T22:51:39;9.10;;;2.85;;
24713;SDS011;12820;51.580;5.010;2022-07-29T22:56:41;8.70;;;2.85;;
24713;SDS011;12820;51.580;5.010;2022-07-29T23:01:43;6.65;;;2.67;;
24713;SDS011;12820;51.580;5.010;2022-07-29T23:06:45;7.75;;;2.83;;
24713;SDS011;12820;51.580;5.010;2022-07-29T23:11:47;9.50;;;3.28;;
24713;SDS011;12820;51.580;5.010;2022-07-29T23:16:49;6.57;;;2.95;;
24713;SDS011;12820;51.580;5.010;2022-07-29T23:21:51;9.63;;;3.13;;
24713;SDS011;12820;51.580;5.010;2022-07-29T23:26:54;8.52;;;3.63;;
24713;SDS011;12820;51.580;5.010;2022-07-29T23:31:56;9.02;;;3.70;;
24713;SDS011;12820;51.580;5.010;2022-07-29T23:36:58;8.05;;;3.58;;
24713;SDS011;12820;51.580;5.010;2022-07-29T23:42:01;10.90;;;4.20;;
24713;SDS011;12820;51.580;5.010;2022-07-29T23:47:03;9.45;;;3.90;;
24713;SDS011;12820;51.580;5.010;2022-07-29T23:52:05;9.02;;;3.67;;
24713;SDS011;12820;51.580;5.010;2022-07-29T23:57:07;8.32;;;4.10;;
